NE29 weather

Cavanaugh Airport
Minden, Nebraska, United States

Public forecast

Using degrees Fahrenheit for public forecast. Weather courtesy of forecast.io.

Closest aviation weather report (METAR) to Cavanaugh Airport

Closest report is Kearney Regional Airport, 12.8 nm (23.7 km) N. Retrieved 2019/10/18 14:56 UTC (45 minutes ago):

KEAR 181456Z AUTO 19020G24KT 10SM CLR 16/04 A2945 RMK AO2 PK WND 18028/1405 SLP966 T01560044 55014

Closest aviation forecast (TAF) to Cavanaugh Airport

Closest forecast is Kearney Regional Airport, 12.8 nm (23.7 km) N. Retrieved 2019/10/18 12:40 UTC (3 hours ago):

TAF KEAR 181137Z 1812/1912 17014KT P6SM SKC WS008/20045KT FM181400 19016KT P6SM SKC FM190100 34013KT P6SM SCT040 SCT150 FM190200 34011KT P6SM SCT040 BKN120 FM190600 33007KT P6SM SCT250